Archival Weather

Norman Y Mineta San Jose Intl

San Jose, California (KSJC)

Report from: Wednesday, April 3, 2024 5:53 PM PDT
Current time: Tuesday, May 21, 2024 10:28 AM PDT

Current weather – Weather history – Daily summaries
Weather forecast

Temperature16.7°C (62.1°F)
Dew point8.9°C (48.0°F)
Winds 14 kts (7.2 m/s, 16.1 mph) North-Northwest (340°)
Visibility10 mi. (16.1 km)
Clouds Scattered clouds 2,000 ft. (610 m)
Scattered clouds 3,500 ft. (1,067 m)
Ceiling: Broken clouds 8,000 ft. (2,438 m)
Altimeter30.04 in.Hg (1017 mB)
Relative humidity60 %
Density altitude234 ft. (71 m)
Sea-level pressure101.7 kPa (1017 mB, 30.04 in.Hg)
Remarks Automated weather observing station with precipitation discriminator
Flight conditions Visual Meteorological Conditions
Raw dataKSJC 040053Z 34014KT 10SM SCT020 SCT035 BKN080 17/09 A3004 RMK AO2 SLP171 T01670089
An error has occurred. This application may no longer respond until reloaded. Reload 🗙